Time;durP1;ratioP1;P1;durP2;ratioP2;P2;SDS_P1;SDS_P2;PMS_P1;PMS_P2;Temp;Humidity;BMP_temperature;BMP_pressure;BME280_temperature;BME280_humidity;BME280_pressure;Samples;Min_cycle;Max_cycle;Signal;HPM_P1;HPM_P2
2023/12/14 00:02:23;;;;;;;2.90;2.60;;;7.00;99.90;;;;;;5011523;28;20453;-82
2023/12/14 00:05:07;;;;;;;2.70;2.50;;;7.00;99.90;;;;;;5009579;28;20455;-81
2023/12/14 00:07:51;;;;;;;3.33;3.13;;;6.60;99.90;;;;;;5007748;28;20452;-81
2023/12/14 00:10:36;;;;;;;3.53;2.67;;;7.00;99.90;;;;;;5008303;28;20464;-81
2023/12/14 00:13:43;;;;;;;3.40;2.93;;;6.90;99.90;;;;;;5007724;28;20461;-80
2023/12/14 00:16:35;;;;;;;3.13;2.90;;;7.00;99.90;;;;;;5007666;28;20453;-80
2023/12/14 00:19:24;;;;;;;2.90;2.70;;;7.00;99.90;;;;;;5006161;28;20481;-81
2023/12/14 00:22:10;;;;;;;3.20;3.00;;;7.00;99.90;;;;;;5005309;28;20457;-80
2023/12/14 00:24:53;;;;;;;3.40;3.20;;;7.00;99.90;;;;;;5004297;28;20454;-80
2023/12/14 00:27:38;;;;;;;3.60;3.40;;;7.00;99.90;;;;;;5006338;28;20513;-81
2023/12/14 00:30:20;;;;;;;3.17;3.00;;;7.00;99.90;;;;;;5005493;28;20545;-80
2023/12/14 00:32:55;;;;;;;3.67;3.10;;;7.00;99.90;;;;;;5001198;28;20479;-82
2023/12/14 00:35:36;;;;;;;2.93;2.73;;;7.00;99.90;;;;;;4999569;28;20442;-80
2023/12/14 00:38:22;;;;;;;1.83;1.73;;;7.00;99.90;;;;;;4998194;28;20539;-80
2023/12/14 00:40:58;;;;;;;2.53;2.33;;;6.90;99.90;;;;;;5000082;28;20559;-80
2023/12/14 00:43:44;;;;;;;2.03;1.93;;;6.90;99.90;;;;;;5002292;28;20806;-80
2023/12/14 00:46:30;;;;;;;1.90;1.80;;;6.90;99.90;;;;;;5001291;28;20453;-80
2023/12/14 00:49:18;;;;;;;1.50;1.47;;;6.90;99.90;;;;;;4999754;28;20453;-81
2023/12/14 00:52:04;;;;;;;1.90;1.80;;;6.90;99.90;;;;;;4999750;28;20452;-81
2023/12/14 00:55:17;;;;;;;2.03;1.80;;;7.00;99.90;;;;;;5000443;28;20476;-81
2023/12/14 00:57:59;;;;;;;2.43;2.10;;;7.00;99.90;;;;;;5003348;28;20461;-81
2023/12/14 01:00:36;;;;;;;2.10;1.90;;;7.00;99.90;;;;;;5002807;28;20488;-80
2023/12/14 01:03:27;;;;;;;2.17;2.07;;;7.00;99.90;;;;;;5003074;28;20544;-80
2023/12/14 01:06:04;;;;;;;2.17;2.00;;;7.00;99.90;;;;;;5001948;28;20508;-80
2023/12/14 01:08:48;;;;;;;2.20;2.10;;;7.00;99.90;;;;;;5000955;28;20523;-80
2023/12/14 01:11:28;;;;;;;2.57;2.37;;;7.00;99.90;;;;;;5005342;28;21003;-80
2023/12/14 01:14:08;;;;;;;3.13;2.83;;;7.00;99.90;;;;;;5008488;28;20457;-81
2023/12/14 01:16:51;;;;;;;2.43;2.23;;;7.00;99.90;;;;;;5004223;28;20519;-80
2023/12/14 01:19:34;;;;;;;2.37;2.17;;;7.00;99.90;;;;;;5003048;28;20477;-80
2023/12/14 01:22:23;;;;;;;2.33;2.10;;;7.00;99.90;;;;;;5003270;28;20464;-81
2023/12/14 01:25:10;;;;;;;2.60;2.40;;;7.00;99.90;;;;;;5002311;28;20485;-80
2023/12/14 01:27:58;;;;;;;3.30;2.80;;;7.00;99.90;;;;;;5002510;28;20951;-82
2023/12/14 01:30:48;;;;;;;3.07;2.73;;;7.00;99.90;;;;;;5003967;28;20476;-81
2023/12/14 01:33:26;;;;;;;2.80;2.60;;;7.00;99.90;;;;;;5000681;28;20783;-81
2023/12/14 01:36:13;;;;;;;3.23;3.03;;;7.00;99.90;;;;;;5002800;28;20453;-81
2023/12/14 01:38:56;;;;;;;3.23;2.80;;;7.00;99.90;;;;;;5002346;28;20488;-80
2023/12/14 01:41:40;;;;;;;2.83;2.57;;;7.00;99.90;;;;;;5002226;28;20991;-80
2023/12/14 01:44:36;;;;;;;2.17;2.07;;;7.00;99.90;;;;;;5003723;28;20456;-81
2023/12/14 01:50:08;;;;;;;3.20;2.53;;;7.00;99.90;;;;;;5002478;28;20461;-80
2023/12/14 01:52:55;;;;;;;2.60;2.40;;;7.10;99.90;;;;;;5004958;28;20507;-81
2023/12/14 01:55:33;;;;;;;2.50;2.30;;;7.10;99.90;;;;;;5003220;28;20441;-81
2023/12/14 01:58:05;;;;;;;2.83;1.93;;;7.10;99.90;;;;;;5009746;28;20448;-79
2023/12/14 02:00:50;;;;;;;2.30;2.10;;;7.00;99.90;;;;;;5011462;28;20478;-80
2023/12/14 02:03:43;;;;;;;1.93;1.93;;;7.00;99.90;;;;;;5008584;28;20460;-81
2023/12/14 02:06:17;;;;;;;2.43;1.90;;;7.00;99.90;;;;;;5008534;28;20449;-80
2023/12/14 02:08:58;;;;;;;2.30;2.10;;;7.00;99.90;;;;;;5010189;28;20486;-80
2023/12/14 02:11:48;;;;;;;;;;;;;;;;;;;;;
2023/12/14 02:14:28;;;;;;;2.10;1.60;;;6.90;99.90;;;;;;5011121;28;20437;-80
2023/12/14 02:17:04;;;;;;;2.80;2.20;;;6.90;99.90;;;;;;5009870;28;20468;-81
2023/12/14 02:19:41;;;;;;;2.10;1.90;;;6.90;99.90;;;;;;5005143;28;20477;-80
2023/12/14 02:22:23;;;;;;;2.40;1.90;;;6.90;99.90;;;;;;5007146;28;20461;-81
2023/12/14 02:25:18;;;;;;;1.50;1.40;;;6.90;99.90;;;;;;5005439;28;20515;-79
2023/12/14 02:28:00;;;;;;;2.93;1.70;;;6.90;99.90;;;;;;4997610;28;20448;-79
2023/12/14 02:30:44;;;;;;;1.90;1.80;;;6.90;99.90;;;;;;4999134;28;20475;-79
2023/12/14 02:33:26;;;;;;;1.60;1.50;;;6.90;99.90;;;;;;5000464;28;20448;-80
2023/12/14 02:36:04;;;;;;;1.47;1.47;;;6.90;99.90;;;;;;4999680;28;20440;-80
2023/12/14 02:38:41;;;;;;;2.10;1.90;;;6.90;99.90;;;;;;4999661;28;20464;-80
2023/12/14 02:41:15;;;;;;;1.70;1.60;;;6.90;99.90;;;;;;4999028;28;20483;-80
2023/12/14 02:47:04;;;;;;;2.90;1.93;;;6.90;99.90;;;;;;4991024;28;20958;-81
2023/12/14 02:49:49;;;;;;;1.50;1.40;;;6.90;99.90;;;;;;5003441;28;20468;-80
2023/12/14 03:02:12;;;;;;;1.40;1.30;;;6.90;99.90;;;;;;5003235;28;20973;-80
2023/12/14 03:04:46;;;;;;;2.10;1.60;;;6.90;99.90;;;;;;5003491;28;20502;-81
2023/12/14 03:08:06;;;;;;;2.93;1.50;;;6.90;99.90;;;;;;5003870;28;21013;-78
2023/12/14 03:11:10;;;;;;;1.60;1.53;;;6.90;99.90;;;;;;4996901;28;20472;-81
2023/12/14 03:14:14;;;;;;;1.87;1.77;;;6.90;99.90;;;;;;5002378;28;20448;-79
2023/12/14 03:17:12;;;;;;;;;;;;;;;;;;;;;
2023/12/14 03:20:39;;;;;;;1.60;1.60;;;6.90;99.90;;;;;;5002415;28;20675;-79
2023/12/14 03:26:37;;;;;;;1.70;1.53;;;6.90;99.90;;;;;;5003361;28;20484;-80
2023/12/14 03:29:43;;;;;;;1.83;1.67;;;6.90;99.90;;;;;;5000298;28;20511;-79
2023/12/14 03:32:41;;;;;;;2.37;1.60;;;6.60;99.90;;;;;;5000209;28;20459;-81
2023/12/14 03:35:41;;;;;;;2.10;2.00;;;6.90;99.90;;;;;;4997758;28;20453;-80
2023/12/14 03:38:17;;;;;;;1.97;1.87;;;6.90;99.90;;;;;;4999617;28;20452;-80
2023/12/14 03:43:47;;;;;;;1.87;1.57;;;6.90;99.90;;;;;;5002163;28;20949;-80
2023/12/14 03:46:28;;;;;;;2.13;2.03;;;6.90;99.90;;;;;;5004786;28;20507;-80
2023/12/14 03:49:08;;;;;;;1.50;1.40;;;6.90;99.90;;;;;;5006687;28;20536;-79
2023/12/14 03:51:54;;;;;;;1.73;1.60;;;6.90;99.90;;;;;;5006354;28;20488;-80
2023/12/14 03:54:35;;;;;;;1.60;1.50;;;6.90;99.90;;;;;;5005530;28;20452;-81
2023/12/14 04:00:25;;;;;;;1.50;1.47;;;6.90;99.90;;;;;;4997466;28;20486;-78
2023/12/14 04:03:36;;;;;;;1.93;1.60;;;6.90;99.90;;;;;;5000426;28;20951;-81
2023/12/14 04:06:37;;;;;;;1.30;1.30;;;6.90;99.90;;;;;;5000544;28;20452;-81
2023/12/14 04:12:19;;;;;;;2.33;1.70;;;7.00;99.90;;;;;;4999816;28;20464;-80
2023/12/14 04:14:56;;;;;;;1.87;1.77;;;7.00;99.90;;;;;;5000323;28;20495;-81
2023/12/14 04:20:35;;;;;;;1.67;1.57;;;7.00;99.90;;;;;;5000757;28;20603;-80
2023/12/14 04:23:21;;;;;;;5.30;1.90;;;7.20;99.90;;;;;;5000718;28;20467;-81
2023/12/14 04:29:36;;;;;;;1.70;1.60;;;6.90;99.90;;;;;;5000725;28;20468;-80
2023/12/14 04:32:24;;;;;;;1.83;1.70;;;6.90;99.90;;;;;;4981899;28;20954;-81
2023/12/14 04:50:43;;;;;;;2.17;2.07;;;6.90;99.90;;;;;;4997430;28;20536;-80
2023/12/14 04:53:42;;;;;;;1.80;1.80;;;6.90;99.90;;;;;;4999620;28;20455;-80
2023/12/14 04:56:46;;;;;;;1.83;1.70;;;6.70;99.90;;;;;;5000247;28;20499;-81
2023/12/14 04:59:52;;;;;;;3.80;2.40;;;6.90;99.90;;;;;;4998713;28;20481;-80
2023/12/14 05:05:45;;;;;;;3.80;2.40;;;6.90;99.90;;;;;;4976274;28;20437;-81
2023/12/14 05:09:04;;;;;;;2.03;1.93;;;6.90;99.90;;;;;;4980571;28;20831;-81
2023/12/14 05:15:31;;;;;;;5.73;2.77;;;7.00;99.90;;;;;;4979989;28;20441;-81
2023/12/14 05:18:43;;;;;;;1.80;1.70;;;7.00;99.90;;;;;;4981989;28;20457;-80
2023/12/14 05:24:30;;;;;;;2.37;2.20;;;7.00;99.90;;;;;;4945258;29;20528;-81
2023/12/14 05:27:15;;;;;;;3.13;2.87;;;7.00;99.90;;;;;;4979608;28;20905;-80
2023/12/14 05:30:02;;;;;;;2.53;2.40;;;7.00;99.90;;;;;;4983779;28;20498;-80
2023/12/14 05:32:47;;;;;;;2.60;2.50;;;7.00;99.90;;;;;;4981208;28;20454;-80
2023/12/14 05:35:26;;;;;;;2.60;2.40;;;7.10;99.90;;;;;;4981777;28;20472;-80
2023/12/14 05:38:12;;;;;;;2.33;2.23;;;7.10;99.90;;;;;;4982835;28;20449;-80
2023/12/14 05:40:52;;;;;;;2.40;2.30;;;7.10;99.90;;;;;;4983922;28;20509;-82
2023/12/14 05:43:48;;;;;;;3.10;2.90;;;7.10;99.90;;;;;;4982851;28;20468;-81
2023/12/14 05:46:30;;;;;;;3.23;3.00;;;7.10;99.90;;;;;;4982278;28;20461;-80
2023/12/14 05:49:08;;;;;;;3.87;3.63;;;7.10;99.90;;;;;;4983143;28;20453;-80
2023/12/14 05:51:51;;;;;;;5.23;4.73;;;7.10;99.90;;;;;;4985488;28;20476;-80
2023/12/14 05:54:33;;;;;;;4.37;3.97;;;7.30;99.90;;;;;;4986686;28;20433;-79
2023/12/14 05:59:56;;;;;;;3.93;3.63;;;7.10;99.90;;;;;;4980129;28;20489;-80
2023/12/14 06:02:31;;;;;;;7.70;4.30;;;7.10;99.90;;;;;;4981195;28;20474;-79
2023/12/14 06:05:10;;;;;;;5.40;3.80;;;7.10;99.90;;;;;;4981089;28;20548;-80
2023/12/14 06:07:44;;;;;;;4.43;3.93;;;7.10;99.90;;;;;;4982493;28;20489;-79
2023/12/14 06:10:37;;;;;;;3.50;3.30;;;7.10;99.90;;;;;;4983244;28;20469;-82
2023/12/14 06:13:13;;;;;;;3.07;2.80;;;7.10;99.90;;;;;;4983022;28;20434;-81
2023/12/14 06:15:47;;;;;;;2.83;2.73;;;7.10;99.90;;;;;;4985655;28;20446;-80
2023/12/14 06:18:47;;;;;;;4.00;3.60;;;7.10;99.90;;;;;;4989305;28;20430;-80
2023/12/14 06:21:30;;;;;;;4.60;3.13;;;7.10;99.90;;;;;;4987985;28;20485;-79
2023/12/14 06:24:26;;;;;;;4.07;3.77;;;7.10;99.90;;;;;;4983300;28;20996;-81
2023/12/14 06:27:16;;;;;;;3.57;3.27;;;7.10;99.90;;;;;;4979304;28;20521;-81
2023/12/14 06:29:52;;;;;;;3.10;2.90;;;7.10;99.90;;;;;;4978446;28;20478;-81
2023/12/14 06:32:35;;;;;;;3.20;3.00;;;7.10;99.90;;;;;;4979124;28;20454;-80
2023/12/14 06:35:20;;;;;;;3.37;3.13;;;7.00;99.90;;;;;;4979848;28;20536;-79
2023/12/14 06:38:00;;;;;;;4.50;4.20;;;7.10;99.90;;;;;;4979865;28;20951;-82
2023/12/14 06:40:37;;;;;;;5.67;3.87;;;7.10;99.90;;;;;;4979708;28;20868;-81
2023/12/14 06:43:20;;;;;;;3.50;3.20;;;7.10;99.90;;;;;;4981684;28;20461;-79
2023/12/14 06:46:09;;;;;;;4.63;4.30;;;7.10;99.90;;;;;;4984899;28;20458;-82
2023/12/14 06:49:11;;;;;;;4.27;3.97;;;7.20;99.90;;;;;;4983917;28;20459;-80
2023/12/14 06:52:15;;;;;;;5.43;4.07;;;7.20;99.90;;;;;;4978898;28;20457;-80
2023/12/14 06:55:06;;;;;;;4.70;4.20;;;7.20;99.90;;;;;;4983987;28;20508;-80
2023/12/14 07:01:16;;;;;;;4.50;4.10;;;7.20;99.90;;;;;;4985479;28;20473;-80
2023/12/14 07:04:04;;;;;;;6.27;4.20;;;7.20;99.90;;;;;;4988011;28;20464;-81
2023/12/14 07:06:41;;;;;;;5.00;4.60;;;7.30;99.90;;;;;;4988735;28;20469;-80
2023/12/14 07:09:20;;;;;;;6.13;5.53;;;7.20;99.90;;;;;;4988193;28;20543;-81
2023/12/14 07:11:55;;;;;;;7.63;6.07;;;7.20;99.90;;;;;;4986865;28;20521;-83
2023/12/14 07:14:23;;;;;;;6.37;5.47;;;7.20;99.90;;;;;;4984823;28;20449;-81
2023/12/14 07:17:18;;;;;;;5.73;5.23;;;7.30;99.90;;;;;;4986513;28;20822;-81
2023/12/14 07:19:45;;;;;;;6.30;5.80;;;7.10;99.90;;;;;;4984226;28;20475;-82
2023/12/14 07:22:20;;;;;;;6.10;5.60;;;7.30;99.90;;;;;;4983718;28;20475;-81
2023/12/14 07:24:56;;;;;;;5.83;5.33;;;7.30;99.90;;;;;;4981669;28;20549;-82
2023/12/14 07:27:39;;;;;;;6.07;5.60;;;7.30;99.90;;;;;;4982216;28;20496;-82
2023/12/14 07:30:17;;;;;;;6.30;5.80;;;7.30;99.90;;;;;;4982431;28;20594;-81
2023/12/14 07:32:59;;;;;;;5.93;5.43;;;7.30;99.90;;;;;;4981885;28;20453;-82
2023/12/14 07:35:30;;;;;;;6.97;6.37;;;7.30;99.90;;;;;;4981325;28;20488;-81
2023/12/14 07:38:07;;;;;;;6.83;6.20;;;7.30;99.90;;;;;;4985898;28;20454;-80
2023/12/14 07:40:50;;;;;;;6.67;6.07;;;7.10;99.90;;;;;;4985269;28;20553;-82
2023/12/14 07:43:26;;;;;;;6.73;6.13;;;7.40;99.90;;;;;;4984057;28;20465;-81
2023/12/14 07:46:08;;;;;;;6.40;5.90;;;7.50;99.90;;;;;;4985122;28;20450;-81
2023/12/14 07:48:57;;;;;;;6.47;5.80;;;7.50;99.90;;;;;;4985492;28;20460;-83
2023/12/14 07:51:39;;;;;;;6.27;5.73;;;7.50;99.90;;;;;;4984954;28;20572;-81
2023/12/14 07:57:21;;;;;;;6.37;5.80;;;7.50;99.90;;;;;;4982324;28;20448;-81
2023/12/14 08:00:27;;;;;;;7.73;5.80;;;7.50;99.90;;;;;;4981989;28;20475;-80
2023/12/14 08:03:08;;;;;;;5.97;5.40;;;7.50;99.90;;;;;;4982017;28;20499;-80
2023/12/14 08:05:43;;;;;;;7.17;6.47;;;7.50;99.90;;;;;;4981417;28;20464;-82
2023/12/14 08:08:13;;;;;;;7.47;6.87;;;7.60;99.90;;;;;;4981939;28;20477;-81
2023/12/14 08:10:43;;;;;;;6.73;6.20;;;7.70;99.90;;;;;;4981975;28;20475;-81
2023/12/14 08:13:18;;;;;;;6.20;5.70;;;7.70;99.90;;;;;;4986531;28;20456;-79
2023/12/14 08:16:01;;;;;;;6.83;6.13;;;7.60;99.90;;;;;;4990384;28;20454;-80
2023/12/14 08:18:32;;;;;;;7.37;6.73;;;7.60;99.90;;;;;;4990121;28;20443;-78
2023/12/14 08:21:08;;;;;;;10.47;6.97;;;7.70;99.90;;;;;;4990886;28;20487;-80
2023/12/14 08:23:49;;;;;;;7.00;6.40;;;7.70;99.90;;;;;;4986900;28;20454;-79
2023/12/14 08:29:08;;;;;;;7.57;6.97;;;7.70;99.90;;;;;;4987555;28;20452;-80
2023/12/14 08:31:47;;;;;;;8.67;7.77;;;7.70;99.90;;;;;;4983899;28;20548;-80
2023/12/14 08:34:26;;;;;;;9.33;8.43;;;7.70;99.90;;;;;;4983338;28;20516;-80
2023/12/14 08:37:10;;;;;;;9.33;7.97;;;7.70;99.90;;;;;;4982577;28;20463;-80
2023/12/14 08:39:44;;;;;;;8.50;7.60;;;7.70;99.90;;;;;;4983847;28;20477;-81
2023/12/14 08:42:16;;;;;;;8.37;7.57;;;7.80;99.90;;;;;;4982405;28;20483;-81
2023/12/14 08:44:55;;;;;;;8.33;7.30;;;7.80;99.90;;;;;;4983247;28;20802;-80
2023/12/14 08:50:27;;;;;;;8.90;8.10;;;7.90;99.90;;;;;;4973511;28;21002;-81
2023/12/14 08:53:04;;;;;;;10.10;7.87;;;7.50;99.90;;;;;;4983894;28;20445;-80
2023/12/14 08:55:44;;;;;;;10.13;8.70;;;7.90;99.90;;;;;;4981145;28;20444;-80
2023/12/14 08:58:17;;;;;;;10.33;9.10;;;7.90;99.90;;;;;;4981143;28;20456;-81
2023/12/14 09:00:52;;;;;;;9.10;8.00;;;8.10;99.90;;;;;;4981927;28;20488;-82
2023/12/14 09:03:23;;;;;;;9.90;8.83;;;8.00;99.90;;;;;;4980293;28;20452;-80
2023/12/14 09:05:51;;;;;;;9.50;8.40;;;8.00;99.90;;;;;;4997382;28;20547;-79
2023/12/14 09:08:21;;;;;;;12.10;9.50;;;8.10;99.90;;;;;;4998389;28;20452;-79
2023/12/14 09:10:54;;;;;;;8.93;8.13;;;7.90;99.90;;;;;;4997589;28;20503;-81
2023/12/14 09:13:22;;;;;;;11.90;8.77;;;7.90;99.90;;;;;;4998926;28;20453;-79
2023/12/14 09:15:53;;;;;;;9.40;8.50;;;7.90;99.90;;;;;;4999882;28;20560;-79
2023/12/14 09:18:27;;;;;;;9.60;8.70;;;8.00;99.90;;;;;;4997786;28;20561;-81
2023/12/14 09:20:57;;;;;;;9.07;8.17;;;7.90;99.90;;;;;;4996884;28;20482;-81
2023/12/14 09:23:35;;;;;;;10.30;9.30;;;8.00;99.90;;;;;;5001762;28;20460;-80
2023/12/14 09:26:10;;;;;;;9.53;8.63;;;8.10;99.90;;;;;;4998887;28;20459;-81
2023/12/14 09:28:39;;;;;;;10.60;7.60;;;8.10;99.90;;;;;;4997512;28;20458;-82
2023/12/14 09:31:15;;;;;;;10.53;8.50;;;8.10;99.90;;;;;;4998701;28;20476;-81
2023/12/14 09:33:50;;;;;;;10.00;8.10;;;8.30;99.90;;;;;;4997160;28;20471;-80
2023/12/14 09:36:25;;;;;;;8.93;7.80;;;8.10;99.90;;;;;;4997790;28;20454;-80
2023/12/14 09:38:55;;;;;;;9.37;8.47;;;8.10;99.90;;;;;;4997893;28;20974;-81
2023/12/14 09:41:48;;;;;;;;;;;;;;;;;;;;;
2023/12/14 09:44:28;;;;;;;10.20;9.10;;;8.20;99.90;;;;;;4999150;28;20933;-81
2023/12/14 09:47:02;;;;;;;10.10;9.03;;;8.20;99.90;;;;;;5000026;28;20953;-80
2023/12/14 09:49:44;;;;;;;9.87;8.67;;;8.20;99.90;;;;;;4999821;28;20448;-80
2023/12/14 09:52:12;;;;;;;9.77;8.87;;;8.20;99.90;;;;;;5000336;28;20444;-81
2023/12/14 09:54:55;;;;;;;10.33;9.27;;;8.20;99.90;;;;;;4999217;28;20483;-82
2023/12/14 09:57:26;;;;;;;10.13;9.10;;;8.30;99.90;;;;;;5001030;28;20448;-80
2023/12/14 10:00:14;;;;;;;11.57;9.93;;;8.30;99.90;;;;;;4999819;28;20466;-82
2023/12/14 10:02:54;;;;;;;10.63;9.60;;;8.40;99.90;;;;;;5001232;28;20476;-80
2023/12/14 10:05:45;;;;;;;15.30;10.50;;;8.40;99.90;;;;;;5001516;28;20985;-81
2023/12/14 10:08:19;;;;;;;13.23;10.80;;;8.50;99.90;;;;;;5000682;28;20470;-83
2023/12/14 10:10:58;;;;;;;11.90;10.57;;;8.70;99.90;;;;;;5003007;28;20502;-80
2023/12/14 10:13:40;;;;;;;11.97;9.80;;;8.60;99.90;;;;;;5006002;28;20450;-82
2023/12/14 10:16:31;;;;;;;12.20;10.87;;;8.80;99.90;;;;;;5000574;28;20456;-83
2023/12/14 10:19:00;;;;;;;14.73;9.83;;;8.90;99.90;;;;;;5000456;28;20448;-81
2023/12/14 10:21:34;;;;;;;12.43;10.60;;;9.20;99.90;;;;;;5002702;28;20480;-82
2023/12/14 10:24:09;;;;;;;11.73;10.57;;;9.20;99.90;;;;;;5002744;28;20452;-82
2023/12/14 10:26:42;;;;;;;13.30;9.97;;;9.30;99.90;;;;;;5000464;28;20451;-81
2023/12/14 10:29:09;;;;;;;11.37;10.03;;;9.30;99.90;;;;;;5001452;28;20479;-81
2023/12/14 10:31:54;;;;;;;8.97;8.07;;;9.40;99.90;;;;;;5002491;28;20450;-81
2023/12/14 10:34:22;;;;;;;11.57;9.13;;;9.40;99.90;;;;;;5002410;28;20546;-82
2023/12/14 10:36:52;;;;;;;9.27;8.47;;;9.50;99.90;;;;;;5001859;28;20562;-81
2023/12/14 10:39:21;;;;;;;10.90;8.03;;;9.60;99.90;;;;;;5000883;28;20463;-81
2023/12/14 10:42:11;;;;;;;9.07;8.17;;;9.70;99.90;;;;;;5007118;28;20463;-81
2023/12/14 10:44:47;;;;;;;11.33;8.23;;;9.80;99.90;;;;;;5010083;28;20854;-82
2023/12/14 10:47:20;;;;;;;9.70;8.70;;;9.60;99.90;;;;;;5010636;28;20483;-80
2023/12/14 10:49:52;;;;;;;9.93;8.33;;;9.50;99.90;;;;;;5007821;28;21043;-81
2023/12/14 10:52:35;;;;;;;11.10;9.70;;;9.50;99.90;;;;;;5002949;28;20452;-82
2023/12/14 10:55:17;;;;;;;11.40;9.23;;;9.40;99.90;;;;;;4998655;28;20451;-81
2023/12/14 10:57:50;;;;;;;9.70;8.80;;;9.30;99.90;;;;;;4997964;28;20463;-82
2023/12/14 11:00:21;;;;;;;12.20;9.70;;;9.30;99.90;;;;;;4996766;28;20451;-82
2023/12/14 11:02:49;;;;;;;9.80;8.90;;;9.30;99.90;;;;;;4997980;28;20873;-80
2023/12/14 11:05:31;;;;;;;9.03;8.17;;;9.20;99.90;;;;;;4989904;28;20492;-80
2023/12/14 11:08:15;;;;;;;10.80;9.73;;;9.30;99.90;;;;;;4984199;28;20457;-82
2023/12/14 11:11:11;;;;;;;9.67;7.87;;;9.30;99.90;;;;;;4985374;28;20467;-82
2023/12/14 11:17:17;;;;;;;11.10;8.63;;;9.30;99.90;;;;;;4995432;28;20417;-79
2023/12/14 11:19:46;;;;;;;9.70;8.17;;;9.10;99.90;;;;;;4986281;28;20471;-81
2023/12/14 11:22:32;;;;;;;10.53;9.03;;;9.10;99.90;;;;;;4991508;28;20472;-84
2023/12/14 11:25:12;;;;;;;12.87;9.00;;;9.00;99.90;;;;;;4996729;28;20454;-83
2023/12/14 11:27:49;;;;;;;10.57;9.57;;;9.00;99.90;;;;;;4995195;28;20436;-82
2023/12/14 11:30:20;;;;;;;9.27;8.13;;;9.00;99.90;;;;;;4993590;28;20477;-80
2023/12/14 11:33:11;;;;;;;11.43;8.57;;;9.00;99.90;;;;;;4989521;28;20433;-80
2023/12/14 11:35:46;;;;;;;11.90;8.47;;;9.00;99.90;;;;;;4992348;28;20483;-81
2023/12/14 11:38:32;;;;;;;8.47;7.77;;;9.10;99.90;;;;;;4992857;28;20484;-82
2023/12/14 11:41:09;;;;;;;12.47;7.47;;;9.10;99.90;;;;;;4991536;28;20548;-81
2023/12/14 11:43:48;;;;;;;8.07;7.27;;;9.30;99.90;;;;;;4992107;28;20472;-81
2023/12/14 11:46:24;;;;;;;9.17;7.50;;;9.30;99.90;;;;;;4993672;28;20423;-82
2023/12/14 11:49:03;;;;;;;8.83;7.93;;;9.30;99.90;;;;;;4988042;28;20491;-80
2023/12/14 11:51:36;;;;;;;8.77;7.87;;;9.40;99.90;;;;;;4988469;28;21046;-79
2023/12/14 11:54:09;;;;;;;9.47;7.60;;;9.50;99.90;;;;;;4982651;28;20424;-82
2023/12/14 11:56:37;;;;;;;8.67;7.77;;;9.40;99.90;;;;;;4984994;28;20448;-80
2023/12/14 11:59:05;;;;;;;7.30;6.60;;;9.30;99.90;;;;;;4982742;28;20460;-81
2023/12/14 12:01:37;;;;;;;7.47;6.63;;;9.20;99.90;;;;;;4980846;28;20487;-81
2023/12/14 12:04:20;;;;;;;6.83;6.00;;;9.20;99.90;;;;;;4983486;28;20456;-79
2023/12/14 12:06:58;;;;;;;5.40;5.00;;;9.30;99.90;;;;;;4981899;28;20484;-82
2023/12/14 12:09:59;;;;;;;7.13;5.33;;;9.30;99.90;;;;;;4987522;28;20460;-79
2023/12/14 12:12:28;;;;;;;4.83;4.43;;;9.40;99.90;;;;;;4987586;28;20458;-80
2023/12/14 12:14:59;;;;;;;4.70;4.10;;;9.50;99.90;;;;;;4993637;28;20442;-81
2023/12/14 12:17:41;;;;;;;3.67;3.37;;;9.50;99.90;;;;;;4985732;28;20465;-82
2023/12/14 12:20:30;;;;;;;3.80;3.60;;;9.60;99.90;;;;;;4992601;28;20476;-83
2023/12/14 12:23:07;;;;;;;4.50;3.40;;;9.40;99.90;;;;;;4994803;28;20497;-82
2023/12/14 12:25:45;;;;;;;3.73;3.53;;;9.30;99.90;;;;;;4992108;28;20486;-81
2023/12/14 12:28:15;;;;;;;3.80;3.50;;;9.30;99.90;;;;;;4984934;28;20456;-79
2023/12/14 12:33:54;;;;;;;3.93;3.53;;;9.30;99.90;;;;;;4989697;28;20460;-82
2023/12/14 12:36:54;;;;;;;4.10;3.80;;;9.20;99.90;;;;;;4991173;28;20500;-83
2023/12/14 12:39:28;;;;;;;3.53;3.23;;;9.10;99.90;;;;;;4996688;28;20489;-81
2023/12/14 12:42:14;;;;;;;3.27;3.00;;;9.10;99.90;;;;;;4997320;28;20491;-83
2023/12/14 12:44:51;;;;;;;3.47;3.27;;;9.10;99.90;;;;;;4996977;28;20455;-83
2023/12/14 12:47:28;;;;;;;3.40;3.00;;;9.10;99.90;;;;;;4997316;28;20451;-84
2023/12/14 12:50:06;;;;;;;2.70;2.50;;;9.00;99.90;;;;;;4998464;28;20459;-83
2023/12/14 12:52:39;;;;;;;2.80;2.63;;;8.90;99.90;;;;;;4998406;28;20452;-81
2023/12/14 12:55:09;;;;;;;3.10;2.80;;;8.90;99.90;;;;;;4997909;28;20452;-83
2023/12/14 12:57:42;;;;;;;3.53;3.20;;;8.80;99.90;;;;;;4997833;28;20462;-83
2023/12/14 13:00:15;;;;;;;3.50;3.20;;;8.80;99.90;;;;;;4998735;28;20461;-80
2023/12/14 13:02:44;;;;;;;5.17;2.90;;;8.80;99.90;;;;;;4997207;28;20487;-80
2023/12/14 13:05:36;;;;;;;3.43;3.13;;;8.80;99.90;;;;;;4995753;28;20463;-82
2023/12/14 13:08:22;;;;;;;6.30;3.87;;;8.80;99.90;;;;;;4995692;28;20801;-81
2023/12/14 13:10:56;;;;;;;2.93;2.73;;;8.80;99.90;;;;;;4996800;28;20508;-81
2023/12/14 13:13:34;;;;;;;2.87;2.67;;;8.70;99.90;;;;;;4996044;28;20917;-82
2023/12/14 13:16:03;;;;;;;3.60;3.30;;;8.60;99.90;;;;;;4996613;28;20460;-82
2023/12/14 13:18:30;;;;;;;3.27;2.97;;;8.70;99.90;;;;;;4996833;28;20451;-81
2023/12/14 13:21:03;;;;;;;3.53;3.23;;;8.70;99.90;;;;;;4996662;28;20466;-81
2023/12/14 13:23:34;;;;;;;3.33;3.00;;;8.60;99.90;;;;;;4995722;28;20541;-81
2023/12/14 13:26:04;;;;;;;3.47;3.17;;;8.60;99.90;;;;;;4996055;28;20444;-81
2023/12/14 13:28:38;;;;;;;3.60;3.30;;;8.60;99.90;;;;;;4995135;28;20519;-82
2023/12/14 13:31:07;;;;;;;3.70;3.03;;;8.50;99.90;;;;;;4994103;28;20468;-81
2023/12/14 13:33:35;;;;;;;3.57;3.33;;;8.50;99.90;;;;;;4993141;28;20471;-81
2023/12/14 13:36:11;;;;;;;3.73;3.43;;;8.40;99.90;;;;;;4994031;28;20460;-79
2023/12/14 13:38:45;;;;;;;3.73;3.43;;;8.50;99.90;;;;;;4996197;28;20424;-79
2023/12/14 13:41:14;;;;;;;2.97;2.77;;;8.40;99.90;;;;;;4994962;28;20556;-80
2023/12/14 13:43:43;;;;;;;3.90;3.70;;;8.30;99.90;;;;;;4996552;28;20515;-79
2023/12/14 13:46:11;;;;;;;3.97;3.57;;;8.30;99.90;;;;;;4997518;28;20444;-81
2023/12/14 13:48:38;;;;;;;3.47;3.27;;;8.20;99.90;;;;;;4997197;28;20486;-79
2023/12/14 13:51:08;;;;;;;4.63;4.13;;;8.10;99.90;;;;;;4995857;28;20527;-82
2023/12/14 13:53:36;;;;;;;3.50;3.30;;;8.10;99.90;;;;;;4996548;28;20509;-79
2023/12/14 13:56:07;;;;;;;3.60;3.30;;;8.20;99.90;;;;;;4996957;28;20461;-82
2023/12/14 13:58:38;;;;;;;5.40;4.10;;;8.20;99.90;;;;;;4997051;28;20524;-82
2023/12/14 14:01:19;;;;;;;4.00;3.60;;;8.20;99.90;;;;;;4996656;28;20485;-82
2023/12/14 14:03:47;;;;;;;5.20;3.40;;;8.10;99.90;;;;;;4996178;28;20488;-81
2023/12/14 14:06:19;;;;;;;4.73;4.03;;;8.20;99.90;;;;;;4994915;28;20445;-80
2023/12/14 14:08:55;;;;;;;6.23;4.80;;;8.10;99.90;;;;;;4995311;28;20600;-82
2023/12/14 14:11:27;;;;;;;5.87;5.27;;;8.20;99.90;;;;;;4995976;28;20463;-83
2023/12/14 14:13:57;;;;;;;7.13;6.43;;;8.20;99.90;;;;;;4996132;28;20434;-83
2023/12/14 14:16:36;;;;;;;8.10;6.60;;;8.20;99.90;;;;;;4996356;28;20460;-82
2023/12/14 14:19:08;;;;;;;8.20;7.40;;;8.00;99.90;;;;;;4997747;28;20472;-80
2023/12/14 14:21:38;;;;;;;8.10;7.13;;;8.20;99.90;;;;;;4996811;28;20441;-83
2023/12/14 14:24:13;;;;;;;8.73;7.83;;;7.90;99.90;;;;;;4996289;28;20711;-81
2023/12/14 14:27:12;;;;;;;8.63;7.17;;;8.00;99.90;;;;;;4994298;28;20444;-81
2023/12/14 14:30:09;;;;;;;9.90;8.17;;;8.00;99.90;;;;;;4992553;28;20992;-82
2023/12/14 14:32:54;;;;;;;9.67;7.90;;;8.00;99.90;;;;;;4996985;28;20450;-83
2023/12/14 14:35:25;;;;;;;9.17;8.13;;;8.20;99.90;;;;;;4994401;28;20536;-80
2023/12/14 14:38:02;;;;;;;10.57;8.27;;;8.00;99.90;;;;;;4992268;28;20456;-82
2023/12/14 14:40:38;;;;;;;11.20;8.40;;;8.00;99.90;;;;;;4988266;28;20482;-82
2023/12/14 14:43:06;;;;;;;10.33;9.30;;;8.00;99.90;;;;;;4988187;28;20471;-81
2023/12/14 14:45:33;;;;;;;10.27;9.17;;;8.00;99.90;;;;;;4991296;28;20815;-85
2023/12/14 14:48:05;;;;;;;11.07;9.73;;;7.90;99.90;;;;;;4994716;28;20455;-83
2023/12/14 14:50:44;;;;;;;12.13;9.13;;;7.90;99.90;;;;;;4996309;28;20457;-79
2023/12/14 14:53:17;;;;;;;11.17;9.97;;;8.00;99.90;;;;;;4995785;28;20420;-81
2023/12/14 14:55:53;;;;;;;13.30;9.67;;;8.00;99.90;;;;;;4995530;28;20447;-82
2023/12/14 14:58:24;;;;;;;13.70;10.80;;;8.00;99.90;;;;;;4996611;28;20445;-81
2023/12/14 15:01:15;;;;;;;19.77;11.70;;;7.90;99.90;;;;;;4998471;28;20483;-85
2023/12/14 15:03:48;;;;;;;13.60;11.57;;;7.90;99.90;;;;;;4999132;28;20481;-83
2023/12/14 15:06:25;;;;;;;12.27;10.50;;;7.80;99.90;;;;;;4999812;28;20454;-84
2023/12/14 15:09:02;;;;;;;13.13;11.47;;;7.90;99.90;;;;;;4999662;28;20433;-84
2023/12/14 15:11:31;;;;;;;12.30;11.00;;;8.00;99.90;;;;;;4998257;28;20477;-82
2023/12/14 15:14:03;;;;;;;13.00;10.93;;;8.00;99.90;;;;;;4999104;28;20467;-83
2023/12/14 15:16:36;;;;;;;15.07;12.37;;;8.20;99.90;;;;;;4998462;28;20467;-81
2023/12/14 15:19:15;;;;;;;13.93;11.53;;;7.90;99.90;;;;;;4997891;28;20464;-83
2023/12/14 15:21:55;;;;;;;14.40;11.53;;;7.90;99.90;;;;;;4996810;28;20449;-82
2023/12/14 15:24:36;;;;;;;13.00;11.00;;;7.90;99.90;;;;;;4995678;28;20429;-84
2023/12/14 15:27:17;;;;;;;15.07;12.23;;;7.90;99.90;;;;;;4995574;28;20499;-82
2023/12/14 15:29:52;;;;;;;15.03;11.27;;;8.10;99.90;;;;;;4993838;28;20453;-81